Time;durP1;ratioP1;P1;durP2;ratioP2;P2;SDS_P1;SDS_P2;PMS_P1;PMS_P2;Temp;Humidity;BMP_temperature;BMP_pressure;BME280_temperature;BME280_humidity;BME280_pressure;Samples;Min_cycle;Max_cycle;Signal;HPM_P1;HPM_P2
2022/10/15 00:00:44;;;;;;;1.10;1.00;;;13.90;99.90;;;;;;5009788;28;20535;-79
2022/10/15 00:03:10;;;;;;;1.17;1.00;;;13.90;99.90;;;;;;5010256;28;20053;-79
2022/10/15 00:05:37;;;;;;;1.30;1.13;;;13.70;99.90;;;;;;5025465;28;20055;-79
2022/10/15 00:08:03;;;;;;;1.00;0.85;;;13.60;99.90;;;;;;5010341;28;20018;-79
2022/10/15 00:10:29;;;;;;;1.95;1.30;;;13.60;99.90;;;;;;5010559;28;20297;-79
2022/10/15 00:12:55;;;;;;;0.88;0.77;;;13.60;99.90;;;;;;5010234;28;20063;-79
2022/10/15 00:15:21;;;;;;;1.27;0.90;;;13.60;99.90;;;;;;5004396;28;20014;-79
2022/10/15 00:17:47;;;;;;;1.25;1.00;;;13.60;99.90;;;;;;5008964;28;20048;-79
2022/10/15 00:20:12;;;;;;;1.73;1.15;;;13.60;99.90;;;;;;5013428;28;20030;-79
2022/10/15 00:22:38;;;;;;;0.80;0.70;;;13.60;99.90;;;;;;5013853;28;20585;-79
2022/10/15 00:25:05;;;;;;;0.98;0.88;;;13.70;99.90;;;;;;5013736;28;20026;-79
2022/10/15 00:27:30;;;;;;;1.00;0.90;;;13.50;99.90;;;;;;5028751;28;20025;-79
2022/10/15 00:29:59;;;;;;;1.25;0.90;;;13.60;99.90;;;;;;5013846;28;20251;-79
2022/10/15 00:32:24;;;;;;;1.00;0.90;;;13.40;99.90;;;;;;5013544;28;20029;-79
2022/10/15 00:34:50;;;;;;;3.08;0.90;;;13.40;99.90;;;;;;5013105;28;20116;-79
2022/10/15 00:37:16;;;;;;;1.05;0.95;;;13.50;99.90;;;;;;5013292;28;20503;-79
2022/10/15 00:39:42;;;;;;;1.10;1.00;;;13.40;99.90;;;;;;5008580;28;20026;-79
2022/10/15 00:42:10;;;;;;;0.85;0.85;;;13.50;99.90;;;;;;5013242;28;20360;-79
2022/10/15 00:44:54;;;;;;;1.25;1.10;;;13.60;99.90;;;;;;5013502;28;20060;-79
2022/10/15 00:47:25;;;;;;;1.52;0.80;;;13.50;99.90;;;;;;5012670;28;20037;-79
2022/10/15 00:49:59;;;;;;;0.63;0.57;;;13.40;99.90;;;;;;5013159;28;20091;-79
2022/10/15 00:52:43;;;;;;;1.88;1.13;;;13.30;99.90;;;;;;5013165;28;20018;-79
2022/10/15 00:55:30;;;;;;;1.85;0.90;;;13.40;99.90;;;;;;5012921;28;20050;-79
2022/10/15 00:57:59;;;;;;;0.98;0.88;;;13.50;99.90;;;;;;5028371;28;20049;-79
2022/10/15 01:00:25;;;;;;;0.82;0.82;;;13.40;99.90;;;;;;5012663;28;20022;-79
2022/10/15 01:02:50;;;;;;;0.82;0.75;;;13.30;99.90;;;;;;5013641;28;20383;-79
2022/10/15 01:05:17;;;;;;;0.90;0.73;;;13.40;99.90;;;;;;5012516;28;20029;-79
2022/10/15 01:07:43;;;;;;;1.35;0.90;;;13.30;99.90;;;;;;5013008;28;20075;-80
2022/10/15 01:10:09;;;;;;;0.90;0.90;;;13.40;99.90;;;;;;5012611;28;20026;-79
2022/10/15 01:13:02;;;;;;;0.93;0.80;;;13.30;99.90;;;;;;5012428;28;20030;-79
2022/10/15 01:15:43;;;;;;;1.13;1.00;;;13.10;99.90;;;;;;5005964;28;20060;-79
2022/10/15 01:18:31;;;;;;;1.30;0.90;;;13.00;99.90;;;;;;5012794;28;20036;-79
2022/10/15 01:21:13;;;;;;;1.55;0.80;;;13.20;99.90;;;;;;5012480;28;20029;-79
2022/10/15 01:23:48;;;;;;;1.58;0.80;;;13.20;99.90;;;;;;5027982;28;20053;-79
2022/10/15 01:26:43;;;;;;;0.80;0.80;;;13.20;99.90;;;;;;5012549;28;20101;-79
2022/10/15 01:29:27;;;;;;;0.80;0.80;;;13.10;99.90;;;;;;5027699;28;20033;-80
2022/10/15 01:32:10;;;;;;;1.23;0.90;;;13.20;99.90;;;;;;5026383;28;20499;-80
2022/10/15 01:35:10;;;;;;;1.27;1.17;;;13.20;99.90;;;;;;5027664;28;20029;-79
2022/10/15 01:37:42;;;;;;;1.17;0.80;;;13.20;99.90;;;;;;5012691;28;20064;-79
2022/10/15 01:40:15;;;;;;;1.00;0.88;;;13.00;99.90;;;;;;5006788;28;20022;-79
2022/10/15 01:42:52;;;;;;;0.93;0.80;;;13.00;99.90;;;;;;5011720;28;20520;-79
2022/10/15 01:45:28;;;;;;;1.00;0.82;;;13.10;99.90;;;;;;5011713;28;20040;-79
2022/10/15 01:47:57;;;;;;;0.70;0.70;;;13.10;99.90;;;;;;5012201;28;20021;-80
2022/10/15 01:50:26;;;;;;;2.47;0.77;;;13.00;99.90;;;;;;5011996;28;20022;-79
2022/10/15 01:52:55;;;;;;;1.15;0.70;;;13.00;99.90;;;;;;5012293;28;20593;-79
2022/10/15 01:55:22;;;;;;;0.70;0.70;;;12.90;99.90;;;;;;5011966;28;20096;-79
2022/10/15 01:57:48;;;;;;;1.15;0.80;;;12.90;99.90;;;;;;5011904;28;20017;-79
2022/10/15 02:00:15;;;;;;;1.58;0.70;;;12.90;99.90;;;;;;5011706;28;20054;-80
2022/10/15 02:02:41;;;;;;;1.33;0.90;;;12.90;99.90;;;;;;5011826;28;20014;-80
2022/10/15 02:05:12;;;;;;;1.00;0.70;;;12.80;99.90;;;;;;5012143;28;20026;-80
2022/10/15 02:07:41;;;;;;;0.60;0.60;;;12.80;99.90;;;;;;5026941;28;20113;-80
2022/10/15 02:10:06;;;;;;;1.63;0.90;;;12.90;99.90;;;;;;5026894;28;20034;-80
2022/10/15 02:12:44;;;;;;;0.68;0.68;;;12.80;99.90;;;;;;5011802;28;20026;-80
2022/10/15 02:15:25;;;;;;;0.85;0.85;;;12.90;99.90;;;;;;5020623;28;20026;-80
2022/10/15 02:18:03;;;;;;;0.90;0.77;;;12.90;99.90;;;;;;5011731;28;20018;-80
2022/10/15 02:20:49;;;;;;;0.68;0.68;;;12.90;99.90;;;;;;5026741;28;20025;-80
2022/10/15 02:23:19;;;;;;;0.70;0.60;;;13.00;99.90;;;;;;5011763;28;20046;-80
2022/10/15 02:25:47;;;;;;;0.70;0.70;;;12.80;99.90;;;;;;5011230;28;20095;-80
2022/10/15 02:28:15;;;;;;;1.08;0.70;;;12.60;99.90;;;;;;5011434;28;20034;-80
2022/10/15 02:30:44;;;;;;;0.88;0.80;;;12.70;99.90;;;;;;5011319;28;20022;-79
2022/10/15 02:33:11;;;;;;;0.70;0.70;;;12.70;99.90;;;;;;5011499;28;20057;-79
2022/10/15 02:35:37;;;;;;;0.80;0.80;;;12.60;99.90;;;;;;5009872;28;20049;-80
2022/10/15 02:38:07;;;;;;;0.68;0.68;;;12.60;99.90;;;;;;5011177;28;20096;-79
2022/10/15 02:40:34;;;;;;;1.02;0.88;;;12.60;99.90;;;;;;5006311;28;20087;-79
2022/10/15 02:43:04;;;;;;;0.90;0.80;;;12.60;99.90;;;;;;5010929;28;20084;-79
2022/10/15 02:45:30;;;;;;;1.27;1.17;;;12.40;99.90;;;;;;5011174;28;20026;-79
2022/10/15 02:47:55;;;;;;;0.63;0.63;;;12.40;99.90;;;;;;5026148;28;20095;-79
2022/10/15 02:50:21;;;;;;;1.23;0.88;;;12.50;99.90;;;;;;5011431;28;20026;-79
2022/10/15 02:52:47;;;;;;;0.65;0.65;;;12.60;99.90;;;;;;5026071;28;20030;-79
2022/10/15 02:55:12;;;;;;;0.80;0.77;;;12.50;99.90;;;;;;5011056;28;20018;-79
2022/10/15 02:57:38;;;;;;;0.80;0.80;;;12.40;99.90;;;;;;5010890;28;20495;-79
2022/10/15 03:00:04;;;;;;;0.82;0.80;;;12.50;99.90;;;;;;5010646;28;20022;-80
2022/10/15 03:02:30;;;;;;;1.10;1.10;;;12.50;99.90;;;;;;5011121;28;20109;-79
2022/10/15 03:04:56;;;;;;;2.38;0.80;;;12.50;99.90;;;;;;5011556;28;20105;-80
2022/10/15 03:07:21;;;;;;;0.70;0.70;;;12.50;99.90;;;;;;5011104;28;20061;-79
2022/10/15 03:09:47;;;;;;;0.70;0.70;;;12.50;99.90;;;;;;5011039;28;20033;-79
2022/10/15 03:12:13;;;;;;;1.00;0.90;;;12.40;99.90;;;;;;5010092;28;20038;-79
2022/10/15 03:14:39;;;;;;;0.88;0.80;;;12.40;99.90;;;;;;5006724;28;20025;-79
2022/10/15 03:17:04;;;;;;;1.00;1.00;;;12.30;99.90;;;;;;5007170;28;20026;-79
2022/10/15 03:19:30;;;;;;;1.80;1.13;;;12.30;99.90;;;;;;5026165;28;20037;-79
2022/10/15 03:21:56;;;;;;;1.10;1.00;;;12.30;99.90;;;;;;5010420;28;20057;-79
2022/10/15 03:24:21;;;;;;;2.15;0.90;;;12.30;99.90;;;;;;5010927;28;20026;-79
2022/10/15 03:26:47;;;;;;;1.05;0.85;;;12.30;99.90;;;;;;5010386;28;20507;-79
2022/10/15 03:29:13;;;;;;;0.80;0.80;;;12.30;99.90;;;;;;5010876;28;20049;-80
2022/10/15 03:31:39;;;;;;;1.40;0.90;;;12.30;99.90;;;;;;5010977;28;20491;-79
2022/10/15 03:34:04;;;;;;;1.13;1.02;;;12.30;99.90;;;;;;5010598;28;20076;-80
2022/10/15 03:36:30;;;;;;;0.93;0.90;;;12.30;99.90;;;;;;5010370;28;20030;-79
2022/10/15 03:38:56;;;;;;;0.98;0.98;;;12.30;99.90;;;;;;5008968;28;20491;-80
2022/10/15 03:41:21;;;;;;;0.80;0.77;;;12.40;99.90;;;;;;5006332;28;20112;-80
2022/10/15 03:43:47;;;;;;;1.00;0.95;;;12.30;99.90;;;;;;5010226;28;20030;-80
2022/10/15 03:46:13;;;;;;;0.80;0.80;;;12.20;99.90;;;;;;5010553;28;20037;-79
2022/10/15 03:48:38;;;;;;;0.90;0.90;;;12.10;99.90;;;;;;5010974;28;20512;-79
2022/10/15 03:51:04;;;;;;;1.38;1.27;;;11.90;99.90;;;;;;5026196;28;20504;-79
2022/10/15 03:53:30;;;;;;;1.00;0.90;;;12.00;99.90;;;;;;5014285;28;20028;-79
2022/10/15 03:56:01;;;;;;;0.90;0.90;;;12.00;99.90;;;;;;5014738;28;20060;-79
2022/10/15 03:58:26;;;;;;;1.27;1.17;;;11.90;99.90;;;;;;5015094;28;20030;-79
2022/10/15 04:00:52;;;;;;;1.30;1.20;;;11.80;99.90;;;;;;5014172;28;20088;-79
2022/10/15 04:03:18;;;;;;;0.90;0.90;;;11.90;99.90;;;;;;5029936;28;20026;-79
2022/10/15 04:05:50;;;;;;;1.48;1.38;;;11.90;99.90;;;;;;5016535;28;20056;-79
2022/10/15 04:08:15;;;;;;;1.30;1.20;;;11.70;99.90;;;;;;5014513;28;20018;-79
2022/10/15 04:10:41;;;;;;;1.27;1.17;;;11.70;99.90;;;;;;5013996;28;20037;-79
2022/10/15 04:13:06;;;;;;;2.10;1.00;;;11.80;99.90;;;;;;5014389;28;20022;-79
2022/10/15 04:15:32;;;;;;;1.33;1.20;;;11.80;99.90;;;;;;5014012;28;20403;-79
2022/10/15 04:17:58;;;;;;;1.45;1.35;;;11.70;99.90;;;;;;5014339;28;20096;-79
2022/10/15 04:20:23;;;;;;;0.80;0.80;;;11.60;99.90;;;;;;5014326;28;20030;-79
2022/10/15 04:22:49;;;;;;;1.23;1.13;;;11.40;99.90;;;;;;5013707;28;20046;-79
2022/10/15 04:25:15;;;;;;;1.08;1.00;;;11.60;99.90;;;;;;5014112;28;20385;-79
2022/10/15 04:27:41;;;;;;;1.45;1.20;;;11.60;99.90;;;;;;5014228;28;20020;-79
2022/10/15 04:30:08;;;;;;;0.90;0.90;;;11.50;99.90;;;;;;5013908;28;20026;-79
2022/10/15 04:32:33;;;;;;;1.42;1.30;;;11.60;99.90;;;;;;5013951;28;20030;-79
2022/10/15 04:34:59;;;;;;;0.75;0.75;;;11.60;99.90;;;;;;5014100;28;20022;-79
2022/10/15 04:37:25;;;;;;;1.02;0.95;;;11.60;99.90;;;;;;5029031;28;20399;-79
2022/10/15 04:39:50;;;;;;;0.80;0.80;;;11.80;99.90;;;;;;5013654;28;20480;-79
2022/10/15 04:42:16;;;;;;;0.85;0.85;;;11.80;99.90;;;;;;5013997;28;20455;-79
2022/10/15 04:44:42;;;;;;;0.82;0.82;;;11.40;99.90;;;;;;5013881;28;20029;-79
2022/10/15 04:47:07;;;;;;;1.00;0.90;;;11.60;99.90;;;;;;5013557;28;20025;-79
2022/10/15 04:49:33;;;;;;;1.17;1.08;;;11.70;99.90;;;;;;5013941;28;20583;-79
2022/10/15 04:51:59;;;;;;;1.20;0.90;;;11.60;99.90;;;;;;5012084;28;20033;-79
2022/10/15 04:54:24;;;;;;;1.05;0.90;;;11.70;99.90;;;;;;5016794;28;20057;-79
2022/10/15 04:56:50;;;;;;;0.80;0.80;;;11.70;99.90;;;;;;5013501;28;20113;-79
2022/10/15 04:59:16;;;;;;;0.60;0.60;;;11.50;99.90;;;;;;5013596;28;20410;-79
2022/10/15 05:01:42;;;;;;;0.85;0.65;;;11.50;99.90;;;;;;5028500;28;20021;-79
2022/10/15 05:04:11;;;;;;;0.85;0.85;;;11.60;99.90;;;;;;5013616;28;20034;-79
2022/10/15 05:06:36;;;;;;;0.93;0.90;;;11.30;99.90;;;;;;5011759;28;20048;-79
2022/10/15 05:09:03;;;;;;;0.80;0.80;;;11.40;99.90;;;;;;5013589;28;20029;-79
2022/10/15 05:11:29;;;;;;;0.80;0.80;;;11.50;99.90;;;;;;5012960;28;20030;-79
2022/10/15 05:13:56;;;;;;;0.85;0.85;;;11.50;99.90;;;;;;5013084;28;20494;-80
2022/10/15 05:16:27;;;;;;;0.80;0.80;;;11.50;99.90;;;;;;5028280;28;20108;-79
2022/10/15 05:18:58;;;;;;;0.80;0.80;;;11.50;99.90;;;;;;5013152;28;20100;-80
2022/10/15 05:21:24;;;;;;;0.70;0.70;;;11.50;99.90;;;;;;5012931;28;20022;-79
2022/10/15 05:23:50;;;;;;;0.70;0.70;;;11.40;99.90;;;;;;5012995;28;20057;-79
2022/10/15 05:26:19;;;;;;;0.77;0.77;;;11.50;99.90;;;;;;5028038;28;20018;-79
2022/10/15 05:28:45;;;;;;;0.90;0.90;;;11.50;99.90;;;;;;5013139;28;20030;-79
2022/10/15 05:31:13;;;;;;;0.70;0.70;;;11.30;99.90;;;;;;5018516;28;20369;-79
2022/10/15 05:33:39;;;;;;;0.75;0.73;;;11.20;99.90;;;;;;5013144;28;20032;-79
2022/10/15 05:36:20;;;;;;;0.90;0.90;;;11.30;99.90;;;;;;5012889;28;20026;-79
2022/10/15 05:38:47;;;;;;;0.80;0.80;;;11.30;99.90;;;;;;5000962;28;20017;-79
2022/10/15 05:41:13;;;;;;;0.73;0.73;;;11.30;99.90;;;;;;5012172;28;20035;-79
2022/10/15 05:43:39;;;;;;;0.88;0.88;;;11.20;99.90;;;;;;5012888;28;20035;-79
2022/10/15 05:46:05;;;;;;;0.80;0.80;;;11.10;99.90;;;;;;5012740;28;20037;-79
2022/10/15 05:48:31;;;;;;;0.80;0.80;;;11.10;99.90;;;;;;5012852;28;20526;-79
2022/10/15 05:51:05;;;;;;;0.80;0.80;;;11.30;99.90;;;;;;5010981;28;20042;-79
2022/10/15 05:53:31;;;;;;;1.02;0.75;;;11.30;99.90;;;;;;5016187;28;20036;-79
2022/10/15 05:55:57;;;;;;;0.98;0.88;;;11.00;99.90;;;;;;5012426;28;20391;-79
2022/10/15 05:58:24;;;;;;;0.70;0.70;;;11.20;99.90;;;;;;5011725;28;20046;-80
2022/10/15 06:00:54;;;;;;;0.75;0.75;;;11.30;99.90;;;;;;5011281;28;20032;-79
2022/10/15 06:03:20;;;;;;;0.77;0.77;;;11.30;99.90;;;;;;5012204;28;20109;-79
2022/10/15 06:05:45;;;;;;;0.43;0.43;;;11.30;99.90;;;;;;5011780;28;20664;-79
2022/10/15 06:08:11;;;;;;;0.70;0.60;;;11.50;99.90;;;;;;5011620;28;20030;-79
2022/10/15 06:10:37;;;;;;;0.60;0.55;;;11.30;99.90;;;;;;5011647;28;20069;-79
2022/10/15 06:13:04;;;;;;;0.70;0.70;;;10.90;99.90;;;;;;5011356;28;20101;-79
2022/10/15 06:15:30;;;;;;;0.95;0.95;;;11.00;99.90;;;;;;5011966;28;20025;-79
2022/10/15 06:17:55;;;;;;;0.80;0.80;;;11.20;99.90;;;;;;5011715;28;20029;-79
2022/10/15 06:20:21;;;;;;;0.75;0.75;;;11.20;99.90;;;;;;5011983;28;20510;-79
2022/10/15 06:22:47;;;;;;;0.68;0.68;;;11.20;99.90;;;;;;5012000;28;20054;-79
2022/10/15 06:25:12;;;;;;;0.60;0.60;;;11.20;99.90;;;;;;5012100;28;20507;-79
2022/10/15 06:27:38;;;;;;;0.75;0.75;;;11.30;99.90;;;;;;5011602;28;20519;-79
2022/10/15 06:30:04;;;;;;;0.88;0.88;;;11.40;99.90;;;;;;5027049;28;20041;-79
2022/10/15 06:32:30;;;;;;;0.60;0.60;;;11.40;99.90;;;;;;5011876;28;20029;-80
2022/10/15 06:34:56;;;;;;;0.70;0.70;;;11.20;99.90;;;;;;5011981;28;20399;-79
2022/10/15 06:37:22;;;;;;;0.80;0.80;;;11.00;99.90;;;;;;5011732;28;20133;-80
2022/10/15 06:39:48;;;;;;;0.70;0.70;;;11.10;99.90;;;;;;5026910;28;20566;-80
2022/10/15 06:42:13;;;;;;;0.90;0.90;;;11.10;99.90;;;;;;5011601;28;20050;-79
2022/10/15 06:44:39;;;;;;;0.70;0.70;;;11.30;99.90;;;;;;5011529;28;20032;-80
2022/10/15 06:47:05;;;;;;;0.80;0.80;;;11.40;99.90;;;;;;5011486;28;20064;-80
2022/10/15 06:49:31;;;;;;;0.80;0.80;;;11.40;99.90;;;;;;5011549;28;20065;-79
2022/10/15 06:51:57;;;;;;;0.70;0.70;;;11.70;99.90;;;;;;5021406;28;20029;-80
2022/10/15 06:54:24;;;;;;;1.02;0.80;;;11.70;99.90;;;;;;5011680;28;20026;-80
2022/10/15 06:56:50;;;;;;;0.68;0.68;;;11.80;99.90;;;;;;5010831;28;20113;-80
2022/10/15 06:59:16;;;;;;;0.52;0.52;;;11.80;99.90;;;;;;5014121;28;20448;-80
2022/10/15 07:01:41;;;;;;;0.70;0.70;;;11.80;99.90;;;;;;5011910;28;20022;-81
2022/10/15 07:04:07;;;;;;;0.70;0.70;;;11.90;99.90;;;;;;5027190;28;20044;-80
2022/10/15 07:06:36;;;;;;;0.60;0.60;;;12.10;99.90;;;;;;5026637;28;20034;-81
2022/10/15 07:09:03;;;;;;;0.65;0.65;;;12.20;99.90;;;;;;5011841;28;20026;-81
2022/10/15 07:11:29;;;;;;;0.60;0.60;;;12.20;99.90;;;;;;5013612;28;20105;-81
2022/10/15 07:13:56;;;;;;;0.60;0.60;;;12.10;99.90;;;;;;5017759;28;20583;-81
2022/10/15 07:16:23;;;;;;;0.60;0.60;;;12.00;99.90;;;;;;5013154;28;20018;-81
2022/10/15 07:18:48;;;;;;;0.50;0.50;;;11.80;99.90;;;;;;5025988;28;20026;-80
2022/10/15 07:21:14;;;;;;;0.50;0.50;;;12.10;99.90;;;;;;5010415;28;20072;-80
2022/10/15 07:23:40;;;;;;;0.90;0.70;;;12.30;99.90;;;;;;5011269;28;20056;-80
2022/10/15 07:26:06;;;;;;;0.60;0.60;;;12.30;99.90;;;;;;5012133;28;20030;-80
2022/10/15 07:28:31;;;;;;;0.70;0.70;;;12.10;99.90;;;;;;5012169;28;20037;-80
2022/10/15 07:31:02;;;;;;;0.70;0.70;;;12.00;99.90;;;;;;5008273;28;20407;-79
2022/10/15 07:33:28;;;;;;;0.70;0.70;;;12.30;99.90;;;;;;5027976;28;20033;-81
2022/10/15 07:35:53;;;;;;;0.50;0.50;;;12.20;99.90;;;;;;5033852;28;20805;-81
2022/10/15 07:38:19;;;;;;;0.50;0.50;;;12.50;99.90;;;;;;5014946;28;20492;-80
2022/10/15 07:40:45;;;;;;;0.70;0.70;;;12.90;99.90;;;;;;5029552;28;20443;-80
2022/10/15 07:43:10;;;;;;;0.40;0.40;;;13.10;99.90;;;;;;5014314;28;20479;-80
2022/10/15 07:45:36;;;;;;;0.60;0.60;;;13.10;99.90;;;;;;5013268;28;20030;-79
2022/10/15 07:48:02;;;;;;;1.13;0.70;;;13.20;99.90;;;;;;5014263;28;20492;-80
2022/10/15 07:50:28;;;;;;;0.52;0.52;;;13.30;99.90;;;;;;5013726;28;20030;-80
2022/10/15 07:52:53;;;;;;;0.57;0.57;;;13.20;99.90;;;;;;5014571;28;20022;-80
2022/10/15 07:55:19;;;;;;;0.60;0.60;;;13.10;99.90;;;;;;5013853;28;20029;-80
2022/10/15 07:57:45;;;;;;;0.65;0.65;;;13.10;99.90;;;;;;5014030;28;20488;-80
2022/10/15 08:00:11;;;;;;;0.55;0.55;;;13.10;99.90;;;;;;5012971;28;20018;-80
2022/10/15 08:02:36;;;;;;;0.63;0.63;;;13.40;99.90;;;;;;5014199;28;20109;-79
2022/10/15 08:05:02;;;;;;;0.70;0.70;;;13.70;99.90;;;;;;5006262;28;20535;-79
2022/10/15 08:07:28;;;;;;;0.68;0.68;;;14.20;99.90;;;;;;5011835;28;20029;-79
2022/10/15 08:09:54;;;;;;;0.93;0.90;;;13.80;99.90;;;;;;5013333;28;20438;-79
2022/10/15 08:12:19;;;;;;;0.65;0.65;;;14.00;99.90;;;;;;5012279;28;20097;-79
2022/10/15 08:14:46;;;;;;;2.00;1.00;;;14.40;99.90;;;;;;5012471;28;20491;-80
2022/10/15 08:17:12;;;;;;;1.20;1.10;;;14.10;99.90;;;;;;5017172;28;20031;-79
2022/10/15 08:19:37;;;;;;;0.85;0.85;;;14.70;99.90;;;;;;5012956;28;20092;-78
2022/10/15 08:22:04;;;;;;;0.90;0.90;;;15.50;99.90;;;;;;5011496;28;20515;-79
2022/10/15 08:24:30;;;;;;;0.70;0.70;;;16.70;99.90;;;;;;5011195;28;20026;-78
2022/10/15 08:26:58;;;;;;;0.90;0.90;;;17.00;99.90;;;;;;5012052;28;20502;-79
2022/10/15 08:29:24;;;;;;;1.58;0.90;;;16.10;99.90;;;;;;5011380;28;20034;-79
2022/10/15 08:31:50;;;;;;;1.20;1.08;;;16.20;99.90;;;;;;5010842;28;20055;-79
2022/10/15 08:34:16;;;;;;;0.90;0.90;;;17.90;99.90;;;;;;5010960;28;20104;-79
2022/10/15 08:36:42;;;;;;;1.45;1.00;;;20.60;99.90;;;;;;5011358;28;20431;-80
2022/10/15 08:39:08;;;;;;;1.38;1.27;;;21.80;99.90;;;;;;5011226;28;20029;-79
2022/10/15 08:41:46;;;;;;;1.33;0.93;;;19.50;99.90;;;;;;5008517;28;20059;-79
2022/10/15 08:44:24;;;;;;;1.30;1.20;;;20.20;99.90;;;;;;5025051;28;20433;-81
2022/10/15 08:47:27;;;;;;;1.20;1.10;;;20.20;99.90;;;;;;4998614;28;20038;-79
2022/10/15 08:49:56;;;;;;;1.40;1.30;;;20.00;99.90;;;;;;5028199;28;20107;-80
2022/10/15 08:52:41;;;;;;;1.80;1.58;;;17.90;99.90;;;;;;5036674;28;20045;-80
2022/10/15 08:55:17;;;;;;;1.85;1.52;;;17.50;99.90;;;;;;5027949;28;20031;-80
2022/10/15 08:58:01;;;;;;;1.50;1.40;;;17.10;99.90;;;;;;5028487;28;20061;-80
2022/10/15 09:00:34;;;;;;;1.92;1.50;;;16.80;99.90;;;;;;5027537;28;20029;-80
2022/10/15 09:03:10;;;;;;;1.77;1.27;;;18.40;99.90;;;;;;5027158;28;20042;-80
2022/10/15 09:05:36;;;;;;;1.45;1.20;;;19.30;99.90;;;;;;5027850;28;20393;-80
2022/10/15 09:08:13;;;;;;;1.23;1.13;;;19.20;99.90;;;;;;5028151;28;20041;-80
2022/10/15 09:10:52;;;;;;;1.40;1.30;;;18.40;99.90;;;;;;5011212;28;20580;-80
2022/10/15 09:13:26;;;;;;;1.10;1.10;;;18.10;99.90;;;;;;5026829;28;20053;-80
2022/10/15 09:16:17;;;;;;;1.08;0.98;;;18.00;99.90;;;;;;5010989;28;20025;-80
2022/10/15 09:18:48;;;;;;;2.95;1.52;;;17.70;99.90;;;;;;5028167;28;20029;-80
2022/10/15 09:21:14;;;;;;;3.72;1.23;;;17.80;99.90;;;;;;5027745;28;20120;-80
2022/10/15 09:23:42;;;;;;;1.10;1.10;;;17.70;99.90;;;;;;4991065;28;545351;-80
2022/10/15 09:26:10;;;;;;;1.48;1.38;;;17.80;99.90;;;;;;5011666;28;20136;-80
2022/10/15 09:28:48;;;;;;;0.98;0.98;;;18.10;99.90;;;;;;5011841;28;20688;-80
2022/10/15 09:31:19;;;;;;;1.08;0.95;;;18.20;99.90;;;;;;5011505;28;20034;-80
2022/10/15 09:33:57;;;;;;;1.65;1.25;;;18.20;99.90;;;;;;5005363;28;20018;-80
2022/10/15 09:36:32;;;;;;;1.00;0.90;;;18.10;99.90;;;;;;5010216;28;20030;-80
2022/10/15 09:39:37;;;;;;;1.33;1.10;;;17.90;99.90;;;;;;5012052;28;20046;-80
2022/10/15 09:42:38;;;;;;;1.15;1.05;;;18.00;99.90;;;;;;4999294;28;20038;-80
2022/10/15 09:45:13;;;;;;;1.40;1.30;;;18.00;99.90;;;;;;5012769;28;20077;-80
2022/10/15 09:47:40;;;;;;;1.35;1.02;;;18.20;99.90;;;;;;5014223;28;20046;-80
2022/10/15 09:50:13;;;;;;;0.90;0.90;;;18.30;99.90;;;;;;4992065;28;20253;-80
2022/10/15 09:52:53;;;;;;;1.15;1.00;;;18.40;99.90;;;;;;5004058;28;20060;-80
2022/10/15 09:55:43;;;;;;;2.80;1.75;;;18.40;99.90;;;;;;5007635;28;20507;-80
2022/10/15 09:58:19;;;;;;;0.82;0.82;;;18.50;99.90;;;;;;4991433;28;20060;-80
2022/10/15 10:00:50;;;;;;;1.55;1.27;;;18.90;99.90;;;;;;4991010;28;20038;-80
2022/10/15 10:03:16;;;;;;;;;;;19.30;99.90;;;;;;5007752;28;20103;-80
2022/10/15 10:05:44;;;;;;;1.20;0.90;;;19.50;99.90;;;;;;5008443;28;19984;-80
2022/10/15 10:08:18;;;;;;;1.63;1.33;;;19.30;99.90;;;;;;5008482;28;20100;-79
2022/10/15 10:10:52;;;;;;;2.08;1.45;;;19.50;99.90;;;;;;5006897;28;20514;-79
2022/10/15 10:13:31;;;;;;;1.50;1.05;;;19.70;99.90;;;;;;5004915;28;20056;-80
2022/10/15 10:16:07;;;;;;;1.58;1.10;;;19.80;99.90;;;;;;5007196;28;20029;-79
2022/10/15 10:18:33;;;;;;;1.73;1.10;;;19.90;99.90;;;;;;5007705;28;20032;-79
2022/10/15 10:21:01;;;;;;;1.20;1.10;;;20.10;99.90;;;;;;5010706;28;20508;-79
2022/10/15 10:23:38;;;;;;;1.60;1.17;;;20.30;99.90;;;;;;5016953;28;20061;-79
2022/10/15 10:26:09;;;;;;;1.27;1.17;;;20.30;99.90;;;;;;5010197;28;20026;-79
2022/10/15 10:28:43;;;;;;;2.90;1.45;;;20.60;99.90;;;;;;5008424;28;20495;-79
2022/10/15 10:31:10;;;;;;;1.27;1.17;;;20.60;99.90;;;;;;5011202;28;20519;-79
2022/10/15 10:33:38;;;;;;;2.00;1.27;;;20.80;99.90;;;;;;5025765;28;20025;-79
2022/10/15 10:36:06;;;;;;;1.55;1.20;;;20.80;99.90;;;;;;5025984;28;20026;-79
2022/10/15 10:38:33;;;;;;;2.42;1.70;;;20.90;99.90;;;;;;5026754;28;20033;-79
2022/10/15 10:41:06;;;;;;;1.50;1.40;;;20.90;99.90;;;;;;5021123;28;20037;-79
2022/10/15 10:43:34;;;;;;;1.88;1.50;;;20.90;99.90;;;;;;5011152;28;20045;-79
2022/10/15 10:46:18;;;;;;;2.58;1.83;;;20.80;99.90;;;;;;5010344;28;20025;-79
2022/10/15 10:48:53;;;;;;;2.28;1.70;;;20.90;99.90;;;;;;5010892;28;20519;-79
2022/10/15 10:51:20;;;;;;;3.72;1.85;;;20.90;99.90;;;;;;5010673;28;20026;-78
2022/10/15 10:54:08;;;;;;;1.77;1.40;;;21.00;99.90;;;;;;5010649;28;20026;-79
2022/10/15 10:56:38;;;;;;;2.05;1.70;;;20.70;99.90;;;;;;5009946;28;20042;-79
2022/10/15 10:59:29;;;;;;;1.33;1.23;;;20.80;99.90;;;;;;5010761;28;20014;-79
2022/10/15 11:01:58;;;;;;;1.50;1.40;;;20.70;99.90;;;;;;5025479;28;20049;-79
2022/10/15 11:04:26;;;;;;;2.03;1.63;;;21.00;99.90;;;;;;5010557;28;20092;-79
2022/10/15 11:07:10;;;;;;;2.45;1.45;;;21.20;99.90;;;;;;5009285;28;20485;-79
2022/10/15 11:09:54;;;;;;;1.52;1.30;;;21.40;99.90;;;;;;5010608;28;20076;-79
2022/10/15 11:12:41;;;;;;;1.25;1.15;;;21.50;99.90;;;;;;5010335;28;20272;-79
2022/10/15 11:15:29;;;;;;;2.30;1.30;;;21.60;99.90;;;;;;5024274;28;20048;-79
2022/10/15 11:18:03;;;;;;;2.28;1.27;;;21.80;99.90;;;;;;5011248;28;20029;-79
2022/10/15 11:21:06;;;;;;;2.13;1.20;;;21.90;99.90;;;;;;5025287;28;20037;-79
2022/10/15 11:23:51;;;;;;;1.38;1.20;;;22.00;99.90;;;;;;5010743;28;20050;-79
2022/10/15 11:26:46;;;;;;;1.20;1.05;;;21.90;99.90;;;;;;5010544;28;20121;-79
2022/10/15 11:29:30;;;;;;;2.90;1.52;;;21.80;99.90;;;;;;5025484;28;20034;-79
2022/10/15 11:32:03;;;;;;;2.17;1.40;;;21.80;99.90;;;;;;5022802;28;20084;-79
2022/10/15 11:34:50;;;;;;;1.48;1.20;;;21.70;99.90;;;;;;5008270;28;20021;-79
2022/10/15 11:37:50;;;;;;;2.00;1.33;;;21.90;99.90;;;;;;5006914;28;20040;-79
2022/10/15 11:40:53;;;;;;;1.20;1.10;;;21.80;99.90;;;;;;4990752;28;20088;-79
2022/10/15 11:43:27;;;;;;;3.20;1.40;;;21.90;99.90;;;;;;5006785;28;20046;-79
2022/10/15 11:46:35;;;;;;;1.50;1.40;;;21.90;99.90;;;;;;5003030;28;20033;-79
2022/10/15 11:49:17;;;;;;;2.58;1.40;;;21.80;99.90;;;;;;5006473;28;20092;-79
2022/10/15 11:52:03;;;;;;;1.48;1.38;;;21.90;99.90;;;;;;4995578;28;20037;-79
2022/10/15 11:54:40;;;;;;;1.00;1.00;;;22.10;99.90;;;;;;5006045;28;20117;-79
2022/10/15 11:57:10;;;;;;;1.50;1.40;;;22.10;99.90;;;;;;4980244;28;20033;-79
2022/10/15 11:59:48;;;;;;;1.90;1.65;;;22.10;99.90;;;;;;5005363;28;20109;-79
2022/10/15 12:02:27;;;;;;;2.55;1.75;;;22.30;99.90;;;;;;5007205;28;20033;-80
2022/10/15 12:04:57;;;;;;;1.40;1.30;;;22.20;99.90;;;;;;5007400;28;20042;-81
2022/10/15 12:07:27;;;;;;;3.05;1.80;;;22.40;99.90;;;;;;5007836;28;20136;-81
2022/10/15 12:10:05;;;;;;;1.98;1.60;;;22.70;99.90;;;;;;5000087;28;20026;-81
2022/10/15 12:12:41;;;;;;;2.15;1.60;;;22.60;99.90;;;;;;5006902;28;20026;-82
2022/10/15 12:15:32;;;;;;;1.77;1.67;;;22.60;99.90;;;;;;5006417;28;20026;-81
2022/10/15 12:18:43;;;;;;;1.83;1.73;;;22.50;99.90;;;;;;4994842;28;20033;-81
2022/10/15 12:21:30;;;;;;;2.75;2.08;;;22.70;99.90;;;;;;4937554;29;20501;-86
2022/10/15 12:23:56;;;;;;;2.58;1.88;;;22.90;99.90;;;;;;4936959;29;20055;-85
2022/10/15 12:26:26;;;;;;;1.77;1.67;;;22.60;99.90;;;;;;4952151;29;20040;-85
2022/10/15 12:28:55;;;;;;;2.20;1.92;;;22.90;99.90;;;;;;4940516;29;20043;-83
2022/10/15 12:31:23;;;;;;;1.80;1.50;;;22.80;99.90;;;;;;4952511;29;20086;-83
2022/10/15 12:33:56;;;;;;;2.08;1.90;;;22.80;99.90;;;;;;4953140;29;20049;-84
2022/10/15 12:36:31;;;;;;;3.55;1.83;;;22.90;99.90;;;;;;4951862;29;20066;-84
2022/10/15 12:39:20;;;;;;;1.60;1.50;;;23.00;99.90;;;;;;4952786;29;20103;-86
2022/10/15 12:41:47;;;;;;;1.98;1.50;;;23.00;99.90;;;;;;4950292;29;20039;-86
2022/10/15 12:44:32;;;;;;;2.67;1.65;;;23.10;99.90;;;;;;4949979;29;20062;-88
2022/10/15 12:46:59;;;;;;;1.80;1.58;;;23.10;99.90;;;;;;4935132;28;20027;-88
2022/10/15 12:49:30;;;;;;;2.30;1.60;;;23.10;99.90;;;;;;4952417;29;20125;-88
2022/10/15 12:51:58;;;;;;;1.50;1.40;;;23.20;99.90;;;;;;4952087;29;20047;-88
2022/10/15 12:54:43;;;;;;;2.67;1.60;;;23.40;99.90;;;;;;4938831;29;20027;-88
2022/10/15 12:57:30;;;;;;;2.22;1.98;;;23.20;99.90;;;;;;4961660;28;20087;-87
2022/10/15 13:00:25;;;;;;;3.03;1.90;;;23.50;99.90;;;;;;5012926;28;20030;-87
2022/10/15 13:02:52;;;;;;;2.22;1.77;;;23.70;99.90;;;;;;5012937;28;20101;-87
2022/10/15 13:05:28;;;;;;;1.95;1.70;;;23.80;99.90;;;;;;5012174;28;20026;-85
2022/10/15 13:07:56;;;;;;;2.60;1.60;;;23.50;99.90;;;;;;5012715;28;20041;-79